sensor_id;sensor_type;location;lat;lon;timestamp;pressure;altitude;pressure_sealevel;temperature;humidity
47753;BME280;2038;51.728;6.674;2023-04-25T00:00:29;100294.66;;;7.65;100.00
47753;BME280;2038;51.728;6.674;2023-04-25T00:02:55;100294.66;;;7.65;100.00
47753;BME280;2038;51.728;6.674;2023-04-25T00:05:23;100291.75;;;7.72;100.00
47753;BME280;2038;51.728;6.674;2023-04-25T00:07:50;100284.03;;;7.71;100.00
47753;BME280;2038;51.728;6.674;2023-04-25T00:10:16;100291.66;;;7.71;100.00
47753;BME280;2038;51.728;6.674;2023-04-25T00:12:42;100290.13;;;7.73;100.00
47753;BME280;2038;51.728;6.674;2023-04-25T00:15:09;100296.31;;;7.65;100.00
47753;BME280;2038;51.728;6.674;2023-04-25T00:17:36;100293.34;;;7.59;100.00
47753;BME280;2038;51.728;6.674;2023-04-25T00:20:04;100287.25;;;7.68;100.00
47753;BME280;2038;51.728;6.674;2023-04-25T00:22:32;100292.78;;;7.74;100.00
47753;BME280;2038;51.728;6.674;2023-04-25T00:25:00;100290.47;;;7.66;100.00
47753;BME280;2038;51.728;6.674;2023-04-25T00:27:26;100294.53;;;7.64;100.00
47753;BME280;2038;51.728;6.674;2023-04-25T00:29:52;100297.84;;;7.63;100.00
47753;BME280;2038;51.728;6.674;2023-04-25T00:32:18;100302.59;;;7.70;100.00
47753;BME280;2038;51.728;6.674;2023-04-25T00:34:44;100309.13;;;7.91;100.00
47753;BME280;2038;51.728;6.674;2023-04-25T00:37:11;100305.69;;;8.02;100.00
47753;BME280;2038;51.728;6.674;2023-04-25T00:39:38;100300.50;;;8.00;100.00
47753;BME280;2038;51.728;6.674;2023-04-25T00:42:05;100306.41;;;8.13;100.00
47753;BME280;2038;51.728;6.674;2023-04-25T00:44:32;100306.91;;;8.20;100.00
47753;BME280;2038;51.728;6.674;2023-04-25T00:47:00;100300.19;;;8.21;100.00
47753;BME280;2038;51.728;6.674;2023-04-25T00:49:27;100298.00;;;8.14;100.00
47753;BME280;2038;51.728;6.674;2023-04-25T00:51:54;100301.38;;;8.01;100.00
47753;BME280;2038;51.728;6.674;2023-04-25T00:54:21;100302.72;;;7.96;100.00
47753;BME280;2038;51.728;6.674;2023-04-25T00:56:48;100304.88;;;8.03;100.00
47753;BME280;2038;51.728;6.674;2023-04-25T00:59:15;100292.41;;;8.06;100.00
47753;BME280;2038;51.728;6.674;2023-04-25T01:01:41;100293.97;;;8.04;100.00
47753;BME280;2038;51.728;6.674;2023-04-25T01:04:08;100303.44;;;8.07;100.00
47753;BME280;2038;51.728;6.674;2023-04-25T01:06:34;100306.66;;;8.04;100.00
47753;BME280;2038;51.728;6.674;2023-04-25T01:09:01;100313.88;;;8.11;100.00
47753;BME280;2038;51.728;6.674;2023-04-25T01:11:29;100322.31;;;8.10;100.00
47753;BME280;2038;51.728;6.674;2023-04-25T01:13:55;100315.53;;;8.11;100.00
47753;BME280;2038;51.728;6.674;2023-04-25T01:16:22;100312.25;;;8.12;100.00
47753;BME280;2038;51.728;6.674;2023-04-25T01:18:50;100311.91;;;8.07;100.00
47753;BME280;2038;51.728;6.674;2023-04-25T01:21:17;100314.81;;;8.00;100.00
47753;BME280;2038;51.728;6.674;2023-04-25T01:23:43;100313.19;;;8.00;100.00
47753;BME280;2038;51.728;6.674;2023-04-25T01:26:10;100316.22;;;8.08;100.00
47753;BME280;2038;51.728;6.674;2023-04-25T01:28:39;100312.41;;;8.02;100.00
47753;BME280;2038;51.728;6.674;2023-04-25T01:31:09;100319.13;;;8.01;100.00
47753;BME280;2038;51.728;6.674;2023-04-25T01:33:37;100317.81;;;8.06;100.00
47753;BME280;2038;51.728;6.674;2023-04-25T01:36:03;100325.19;;;8.03;100.00
47753;BME280;2038;51.728;6.674;2023-04-25T01:38:30;100330.00;;;8.12;100.00
47753;BME280;2038;51.728;6.674;2023-04-25T01:40:56;100328.03;;;8.08;100.00
47753;BME280;2038;51.728;6.674;2023-04-25T01:43:23;100336.91;;;8.01;100.00
47753;BME280;2038;51.728;6.674;2023-04-25T01:45:50;100344.19;;;7.96;100.00
47753;BME280;2038;51.728;6.674;2023-04-25T01:48:17;100340.31;;;8.02;100.00
47753;BME280;2038;51.728;6.674;2023-04-25T01:50:43;100337.09;;;8.04;100.00
47753;BME280;2038;51.728;6.674;2023-04-25T01:53:10;100341.94;;;8.13;100.00
47753;BME280;2038;51.728;6.674;2023-04-25T01:55:39;100353.41;;;8.08;100.00
47753;BME280;2038;51.728;6.674;2023-04-25T01:58:05;100350.31;;;8.12;100.00
47753;BME280;2038;51.728;6.674;2023-04-25T02:00:36;100352.66;;;8.09;100.00
47753;BME280;2038;51.728;6.674;2023-04-25T02:03:04;100348.53;;;8.11;100.00
47753;BME280;2038;51.728;6.674;2023-04-25T02:05:38;100358.16;;;8.03;100.00
47753;BME280;2038;51.728;6.674;2023-04-25T02:08:06;100364.31;;;8.07;100.00
47753;BME280;2038;51.728;6.674;2023-04-25T02:10:34;100358.03;;;8.13;100.00
47753;BME280;2038;51.728;6.674;2023-04-25T02:13:01;100364.03;;;8.02;100.00
47753;BME280;2038;51.728;6.674;2023-04-25T02:15:28;100366.97;;;8.08;100.00
47753;BME280;2038;51.728;6.674;2023-04-25T02:17:54;100367.44;;;8.02;100.00
47753;BME280;2038;51.728;6.674;2023-04-25T02:20:21;100366.78;;;8.05;100.00
47753;BME280;2038;51.728;6.674;2023-04-25T02:22:48;100362.91;;;8.10;100.00
47753;BME280;2038;51.728;6.674;2023-04-25T02:25:15;100365.78;;;8.03;100.00
47753;BME280;2038;51.728;6.674;2023-04-25T02:27:42;100363.25;;;8.03;100.00
47753;BME280;2038;51.728;6.674;2023-04-25T02:30:09;100361.94;;;7.96;100.00
47753;BME280;2038;51.728;6.674;2023-04-25T02:32:35;100362.06;;;7.86;100.00
47753;BME280;2038;51.728;6.674;2023-04-25T02:35:02;100361.44;;;7.89;100.00
47753;BME280;2038;51.728;6.674;2023-04-25T02:37:33;100361.88;;;7.83;100.00
47753;BME280;2038;51.728;6.674;2023-04-25T02:40:01;100364.84;;;7.89;100.00
47753;BME280;2038;51.728;6.674;2023-04-25T02:42:28;100372.34;;;7.88;100.00
47753;BME280;2038;51.728;6.674;2023-04-25T02:44:54;100377.28;;;7.86;100.00
47753;BME280;2038;51.728;6.674;2023-04-25T02:47:21;100373.47;;;7.80;100.00
47753;BME280;2038;51.728;6.674;2023-04-25T02:49:47;100376.31;;;7.84;100.00
47753;BME280;2038;51.728;6.674;2023-04-25T02:52:13;100376.88;;;7.80;100.00
47753;BME280;2038;51.728;6.674;2023-04-25T02:54:40;100384.63;;;7.82;100.00
47753;BME280;2038;51.728;6.674;2023-04-25T02:57:07;100385.81;;;7.75;100.00
47753;BME280;2038;51.728;6.674;2023-04-25T02:59:34;100379.09;;;7.76;100.00
47753;BME280;2038;51.728;6.674;2023-04-25T03:02:00;100378.97;;;7.86;100.00
47753;BME280;2038;51.728;6.674;2023-04-25T03:04:26;100381.03;;;7.91;100.00
47753;BME280;2038;51.728;6.674;2023-04-25T03:06:53;100385.22;;;7.91;100.00
47753;BME280;2038;51.728;6.674;2023-04-25T03:09:19;100388.84;;;7.94;100.00
47753;BME280;2038;51.728;6.674;2023-04-25T03:11:46;100379.38;;;7.92;100.00
47753;BME280;2038;51.728;6.674;2023-04-25T03:14:13;100388.00;;;7.94;100.00
47753;BME280;2038;51.728;6.674;2023-04-25T03:16:39;100383.50;;;7.90;100.00
47753;BME280;2038;51.728;6.674;2023-04-25T03:19:06;100386.66;;;7.87;100.00
47753;BME280;2038;51.728;6.674;2023-04-25T03:21:35;100379.06;;;7.87;100.00
47753;BME280;2038;51.728;6.674;2023-04-25T03:24:03;100381.81;;;7.90;100.00
47753;BME280;2038;51.728;6.674;2023-04-25T03:26:30;100390.66;;;7.84;100.00
47753;BME280;2038;51.728;6.674;2023-04-25T03:28:56;100388.13;;;7.84;100.00
47753;BME280;2038;51.728;6.674;2023-04-25T03:31:23;100392.22;;;7.82;100.00
47753;BME280;2038;51.728;6.674;2023-04-25T03:33:49;100400.03;;;7.85;100.00
47753;BME280;2038;51.728;6.674;2023-04-25T03:36:15;100387.91;;;7.81;100.00
47753;BME280;2038;51.728;6.674;2023-04-25T03:38:41;100393.97;;;7.83;100.00
47753;BME280;2038;51.728;6.674;2023-04-25T03:41:07;100395.94;;;7.87;100.00
47753;BME280;2038;51.728;6.674;2023-04-25T03:43:33;100400.50;;;7.68;100.00
47753;BME280;2038;51.728;6.674;2023-04-25T03:46:00;100401.59;;;7.60;100.00
47753;BME280;2038;51.728;6.674;2023-04-25T03:48:27;100404.28;;;7.49;100.00
47753;BME280;2038;51.728;6.674;2023-04-25T03:50:54;100395.88;;;7.50;100.00
47753;BME280;2038;51.728;6.674;2023-04-25T03:53:20;100402.84;;;7.53;100.00
47753;BME280;2038;51.728;6.674;2023-04-25T03:55:46;100400.31;;;7.41;100.00
47753;BME280;2038;51.728;6.674;2023-04-25T03:58:12;100404.50;;;7.41;100.00
47753;BME280;2038;51.728;6.674;2023-04-25T04:00:38;100407.47;;;7.35;100.00
47753;BME280;2038;51.728;6.674;2023-04-25T04:03:04;100415.63;;;7.31;100.00
47753;BME280;2038;51.728;6.674;2023-04-25T04:05:30;100412.09;;;7.29;100.00
47753;BME280;2038;51.728;6.674;2023-04-25T04:07:57;100411.00;;;7.26;100.00
47753;BME280;2038;51.728;6.674;2023-04-25T04:10:22;100412.94;;;7.18;100.00
47753;BME280;2038;51.728;6.674;2023-04-25T04:12:48;100420.00;;;7.11;100.00
47753;BME280;2038;51.728;6.674;2023-04-25T04:15:14;100418.56;;;7.14;100.00
47753;BME280;2038;51.728;6.674;2023-04-25T04:17:40;100421.69;;;7.10;100.00
47753;BME280;2038;51.728;6.674;2023-04-25T04:20:07;100427.16;;;7.04;100.00
47753;BME280;2038;51.728;6.674;2023-04-25T04:22:34;100428.59;;;7.01;100.00
47753;BME280;2038;51.728;6.674;2023-04-25T04:25:00;100429.75;;;6.94;100.00
47753;BME280;2038;51.728;6.674;2023-04-25T04:27:28;100430.56;;;6.93;100.00
47753;BME280;2038;51.728;6.674;2023-04-25T04:29:55;100428.78;;;6.92;100.00
47753;BME280;2038;51.728;6.674;2023-04-25T04:32:21;100433.84;;;6.92;100.00
47753;BME280;2038;51.728;6.674;2023-04-25T04:34:49;100437.16;;;6.91;100.00
47753;BME280;2038;51.728;6.674;2023-04-25T04:37:15;100434.41;;;6.88;100.00
47753;BME280;2038;51.728;6.674;2023-04-25T04:39:40;100433.50;;;6.88;100.00
47753;BME280;2038;51.728;6.674;2023-04-25T04:42:06;100433.28;;;6.85;100.00
47753;BME280;2038;51.728;6.674;2023-04-25T04:44:34;100444.19;;;6.84;100.00
47753;BME280;2038;51.728;6.674;2023-04-25T04:47:01;100442.94;;;6.79;100.00
47753;BME280;2038;51.728;6.674;2023-04-25T04:49:27;100447.03;;;6.77;100.00
47753;BME280;2038;51.728;6.674;2023-04-25T04:51:53;100452.72;;;6.74;100.00
47753;BME280;2038;51.728;6.674;2023-04-25T04:54:20;100449.00;;;6.69;100.00
47753;BME280;2038;51.728;6.674;2023-04-25T04:56:45;100448.09;;;6.69;100.00
47753;BME280;2038;51.728;6.674;2023-04-25T04:59:11;100452.63;;;6.73;100.00
47753;BME280;2038;51.728;6.674;2023-04-25T05:01:37;100456.41;;;6.78;100.00
47753;BME280;2038;51.728;6.674;2023-04-25T05:04:04;100465.72;;;6.79;100.00
47753;BME280;2038;51.728;6.674;2023-04-25T05:06:30;100466.09;;;6.83;100.00
47753;BME280;2038;51.728;6.674;2023-04-25T05:08:57;100468.41;;;6.80;100.00
47753;BME280;2038;51.728;6.674;2023-04-25T05:11:25;100471.06;;;6.82;100.00
47753;BME280;2038;51.728;6.674;2023-04-25T05:13:54;100483.59;;;6.80;100.00
47753;BME280;2038;51.728;6.674;2023-04-25T05:16:20;100493.72;;;6.80;100.00
47753;BME280;2038;51.728;6.674;2023-04-25T05:18:48;100491.75;;;6.88;100.00
47753;BME280;2038;51.728;6.674;2023-04-25T05:21:14;100488.34;;;6.87;100.00
47753;BME280;2038;51.728;6.674;2023-04-25T05:23:39;100496.53;;;6.95;100.00
47753;BME280;2038;51.728;6.674;2023-04-25T05:26:05;100486.72;;;6.99;100.00
47753;BME280;2038;51.728;6.674;2023-04-25T05:28:39;100492.72;;;7.12;100.00
47753;BME280;2038;51.728;6.674;2023-04-25T05:31:06;100502.63;;;7.09;100.00
47753;BME280;2038;51.728;6.674;2023-04-25T05:33:32;100512.22;;;7.13;100.00
47753;BME280;2038;51.728;6.674;2023-04-25T05:35:58;100514.31;;;7.18;100.00
47753;BME280;2038;51.728;6.674;2023-04-25T05:38:24;100528.16;;;7.33;100.00
47753;BME280;2038;51.728;6.674;2023-04-25T05:40:50;100532.00;;;7.28;100.00
47753;BME280;2038;51.728;6.674;2023-04-25T05:43:16;100536.38;;;7.31;100.00
47753;BME280;2038;51.728;6.674;2023-04-25T05:45:41;100542.16;;;7.40;100.00
47753;BME280;2038;51.728;6.674;2023-04-25T05:48:07;100540.16;;;7.36;100.00
47753;BME280;2038;51.728;6.674;2023-04-25T05:50:33;100533.09;;;7.32;100.00
47753;BME280;2038;51.728;6.674;2023-04-25T05:52:59;100535.97;;;7.36;100.00
47753;BME280;2038;51.728;6.674;2023-04-25T05:55:25;100529.03;;;7.34;100.00
47753;BME280;2038;51.728;6.674;2023-04-25T05:57:51;100527.13;;;7.31;100.00
47753;BME280;2038;51.728;6.674;2023-04-25T06:00:16;100533.84;;;7.31;100.00
47753;BME280;2038;51.728;6.674;2023-04-25T06:02:44;100540.81;;;7.22;100.00
47753;BME280;2038;51.728;6.674;2023-04-25T06:05:10;100540.69;;;7.32;100.00
47753;BME280;2038;51.728;6.674;2023-04-25T06:07:35;100554.81;;;7.28;100.00
47753;BME280;2038;51.728;6.674;2023-04-25T06:10:01;100548.31;;;7.32;100.00
47753;BME280;2038;51.728;6.674;2023-04-25T06:12:29;100547.53;;;7.33;100.00
47753;BME280;2038;51.728;6.674;2023-04-25T06:14:55;100560.63;;;7.27;100.00
47753;BME280;2038;51.728;6.674;2023-04-25T06:17:21;100564.19;;;7.29;100.00
47753;BME280;2038;51.728;6.674;2023-04-25T06:19:48;100565.50;;;7.36;100.00
47753;BME280;2038;51.728;6.674;2023-04-25T06:22:14;100555.03;;;7.43;100.00
47753;BME280;2038;51.728;6.674;2023-04-25T06:24:40;100562.22;;;7.37;100.00
47753;BME280;2038;51.728;6.674;2023-04-25T06:27:06;100565.44;;;7.46;100.00
47753;BME280;2038;51.728;6.674;2023-04-25T06:29:32;100559.81;;;7.50;100.00
47753;BME280;2038;51.728;6.674;2023-04-25T06:31:59;100559.50;;;7.57;100.00
47753;BME280;2038;51.728;6.674;2023-04-25T06:34:25;100561.50;;;7.61;100.00
47753;BME280;2038;51.728;6.674;2023-04-25T06:36:51;100560.06;;;7.65;100.00
47753;BME280;2038;51.728;6.674;2023-04-25T06:39:17;100565.34;;;7.68;100.00
47753;BME280;2038;51.728;6.674;2023-04-25T06:41:45;100566.38;;;7.70;100.00
47753;BME280;2038;51.728;6.674;2023-04-25T06:44:12;100566.72;;;7.74;100.00
47753;BME280;2038;51.728;6.674;2023-04-25T06:46:38;100565.03;;;7.86;100.00
47753;BME280;2038;51.728;6.674;2023-04-25T06:49:04;100566.94;;;7.89;100.00
47753;BME280;2038;51.728;6.674;2023-04-25T06:51:31;100572.88;;;7.89;100.00
47753;BME280;2038;51.728;6.674;2023-04-25T06:53:57;100567.91;;;7.91;100.00
47753;BME280;2038;51.728;6.674;2023-04-25T06:56:23;100575.31;;;7.99;100.00
47753;BME280;2038;51.728;6.674;2023-04-25T06:58:50;100578.06;;;8.02;100.00
47753;BME280;2038;51.728;6.674;2023-04-25T07:01:16;100573.88;;;8.15;100.00
47753;BME280;2038;51.728;6.674;2023-04-25T07:03:42;100580.72;;;8.16;100.00
47753;BME280;2038;51.728;6.674;2023-04-25T07:06:08;100582.16;;;8.24;100.00
47753;BME280;2038;51.728;6.674;2023-04-25T07:08:35;100592.31;;;8.35;100.00
47753;BME280;2038;51.728;6.674;2023-04-25T07:11:01;100593.19;;;8.48;100.00
47753;BME280;2038;51.728;6.674;2023-04-25T07:13:27;100596.28;;;8.55;100.00
47753;BME280;2038;51.728;6.674;2023-04-25T07:15:53;100599.06;;;8.58;100.00
47753;BME280;2038;51.728;6.674;2023-04-25T07:18:20;100601.41;;;8.80;100.00
47753;BME280;2038;51.728;6.674;2023-04-25T07:20:46;100604.72;;;8.79;100.00
47753;BME280;2038;51.728;6.674;2023-04-25T07:23:13;100609.94;;;8.80;100.00
47753;BME280;2038;51.728;6.674;2023-04-25T07:25:39;100620.19;;;8.93;100.00
47753;BME280;2038;51.728;6.674;2023-04-25T07:28:05;100601.25;;;9.02;100.00
47753;BME280;2038;51.728;6.674;2023-04-25T07:30:32;100613.41;;;9.06;100.00
47753;BME280;2038;51.728;6.674;2023-04-25T07:32:58;100609.59;;;9.12;100.00
47753;BME280;2038;51.728;6.674;2023-04-25T07:35:24;100613.75;;;9.23;100.00
47753;BME280;2038;51.728;6.674;2023-04-25T07:37:50;100616.25;;;9.35;100.00
47753;BME280;2038;51.728;6.674;2023-04-25T07:40:17;100622.44;;;9.38;99.96
47753;BME280;2038;51.728;6.674;2023-04-25T07:42:43;100628.50;;;9.40;100.00
47753;BME280;2038;51.728;6.674;2023-04-25T07:45:09;100624.94;;;9.50;100.00
47753;BME280;2038;51.728;6.674;2023-04-25T07:47:36;100635.69;;;9.46;100.00
47753;BME280;2038;51.728;6.674;2023-04-25T07:50:03;100635.19;;;9.52;99.48
47753;BME280;2038;51.728;6.674;2023-04-25T07:52:29;100639.94;;;9.59;99.40
47753;BME280;2038;51.728;6.674;2023-04-25T07:54:55;100645.31;;;9.63;98.29
47753;BME280;2038;51.728;6.674;2023-04-25T07:57:22;100644.72;;;9.67;98.79
47753;BME280;2038;51.728;6.674;2023-04-25T07:59:50;100647.50;;;9.70;98.22
47753;BME280;2038;51.728;6.674;2023-04-25T08:02:16;100644.00;;;9.81;98.97
47753;BME280;2038;51.728;6.674;2023-04-25T08:04:42;100654.69;;;9.89;99.07
47753;BME280;2038;51.728;6.674;2023-04-25T08:07:08;100658.44;;;9.94;96.65
47753;BME280;2038;51.728;6.674;2023-04-25T08:09:35;100664.91;;;10.02;96.48
47753;BME280;2038;51.728;6.674;2023-04-25T08:12:03;100664.09;;;10.15;95.85
47753;BME280;2038;51.728;6.674;2023-04-25T08:14:30;100667.59;;;10.17;95.33
47753;BME280;2038;51.728;6.674;2023-04-25T08:17:02;100672.31;;;10.24;94.59
47753;BME280;2038;51.728;6.674;2023-04-25T08:19:29;100679.63;;;10.19;92.76
47753;BME280;2038;51.728;6.674;2023-04-25T08:21:56;100675.53;;;10.21;92.40
47753;BME280;2038;51.728;6.674;2023-04-25T08:24:23;100678.28;;;10.24;92.55
47753;BME280;2038;51.728;6.674;2023-04-25T08:26:49;100684.09;;;10.35;92.26
47753;BME280;2038;51.728;6.674;2023-04-25T08:29:16;100685.75;;;10.48;91.48
47753;BME280;2038;51.728;6.674;2023-04-25T08:31:42;100686.34;;;10.57;89.66
47753;BME280;2038;51.728;6.674;2023-04-25T08:34:08;100683.69;;;10.68;90.03
47753;BME280;2038;51.728;6.674;2023-04-25T08:36:35;100693.22;;;10.71;89.98
47753;BME280;2038;51.728;6.674;2023-04-25T08:39:01;100695.06;;;10.73;89.94
47753;BME280;2038;51.728;6.674;2023-04-25T08:41:28;100700.06;;;10.72;88.14
47753;BME280;2038;51.728;6.674;2023-04-25T08:43:56;100698.03;;;10.66;88.67
47753;BME280;2038;51.728;6.674;2023-04-25T08:46:26;100698.59;;;10.62;90.16
47753;BME280;2038;51.728;6.674;2023-04-25T08:48:53;100700.16;;;10.47;90.26
47753;BME280;2038;51.728;6.674;2023-04-25T08:51:27;100704.06;;;10.55;89.96
47753;BME280;2038;51.728;6.674;2023-04-25T08:54:08;100703.22;;;10.55;87.20
47753;BME280;2038;51.728;6.674;2023-04-25T08:56:55;100711.13;;;10.59;87.64
47753;BME280;2038;51.728;6.674;2023-04-25T08:59:23;100700.44;;;10.52;87.76
47753;BME280;2038;51.728;6.674;2023-04-25T09:01:50;100708.28;;;10.28;84.44
47753;BME280;2038;51.728;6.674;2023-04-25T09:04:18;100728.25;;;10.36;84.75
47753;BME280;2038;51.728;6.674;2023-04-25T09:06:46;100720.75;;;10.50;83.12
47753;BME280;2038;51.728;6.674;2023-04-25T09:09:13;100730.28;;;10.66;83.88
47753;BME280;2038;51.728;6.674;2023-04-25T09:11:40;100742.91;;;10.77;83.18
47753;BME280;2038;51.728;6.674;2023-04-25T09:14:22;100742.31;;;10.82;87.12
47753;BME280;2038;51.728;6.674;2023-04-25T09:16:59;100735.84;;;10.73;82.51
47753;BME280;2038;51.728;6.674;2023-04-25T09:19:36;100744.47;;;10.75;83.42
47753;BME280;2038;51.728;6.674;2023-04-25T09:22:06;100747.72;;;10.73;81.63
47753;BME280;2038;51.728;6.674;2023-04-25T09:27:07;100745.53;;;11.05;82.68
47753;BME280;2038;51.728;6.674;2023-04-25T09:29:40;100744.78;;;11.06;80.69
47753;BME280;2038;51.728;6.674;2023-04-25T09:34:51;100742.50;;;10.98;80.18
47753;BME280;2038;51.728;6.674;2023-04-25T09:37:23;100753.78;;;10.88;79.72
47753;BME280;2038;51.728;6.674;2023-04-25T09:39:57;100758.41;;;10.80;80.78
47753;BME280;2038;51.728;6.674;2023-04-25T09:42:31;100760.66;;;10.63;82.33
47753;BME280;2038;51.728;6.674;2023-04-25T09:45:00;100769.28;;;10.65;83.90
47753;BME280;2038;51.728;6.674;2023-04-25T09:47:29;100786.69;;;10.46;84.85
47753;BME280;2038;51.728;6.674;2023-04-25T09:49:56;100783.72;;;10.40;87.63
47753;BME280;2038;51.728;6.674;2023-04-25T09:52:24;100789.69;;;10.27;87.01
47753;BME280;2038;51.728;6.674;2023-04-25T09:54:51;100799.88;;;10.27;87.26
47753;BME280;2038;51.728;6.674;2023-04-25T09:57:23;100801.69;;;10.16;88.21
47753;BME280;2038;51.728;6.674;2023-04-25T09:59:54;100804.50;;;9.96;87.09
47753;BME280;2038;51.728;6.674;2023-04-25T10:02:25;100808.56;;;9.81;85.79
47753;BME280;2038;51.728;6.674;2023-04-25T10:04:54;100817.22;;;9.71;86.43
47753;BME280;2038;51.728;6.674;2023-04-25T10:07:27;100824.66;;;9.57;87.26
47753;BME280;2038;51.728;6.674;2023-04-25T10:10:00;100819.25;;;9.52;87.01
47753;BME280;2038;51.728;6.674;2023-04-25T10:12:29;100820.66;;;9.60;87.42
47753;BME280;2038;51.728;6.674;2023-04-25T10:14:59;100820.22;;;9.66;87.77
47753;BME280;2038;51.728;6.674;2023-04-25T10:17:27;100825.16;;;9.76;88.34
47753;BME280;2038;51.728;6.674;2023-04-25T10:19:54;100819.94;;;9.86;88.81
47753;BME280;2038;51.728;6.674;2023-04-25T10:22:29;100824.06;;;10.09;88.87
47753;BME280;2038;51.728;6.674;2023-04-25T10:25:01;100812.69;;;10.28;88.06
47753;BME280;2038;51.728;6.674;2023-04-25T10:27:30;100815.59;;;10.46;88.05
47753;BME280;2038;51.728;6.674;2023-04-25T10:30:08;100810.34;;;10.69;87.30
47753;BME280;2038;51.728;6.674;2023-04-25T10:32:38;100809.69;;;10.85;85.69
47753;BME280;2038;51.728;6.674;2023-04-25T10:40:32;100815.56;;;11.50;83.93
47753;BME280;2038;51.728;6.674;2023-04-25T10:46:27;100831.34;;;11.57;80.22
47753;BME280;2038;51.728;6.674;2023-04-25T10:48:58;100826.06;;;11.54;79.05
47753;BME280;2038;51.728;6.674;2023-04-25T10:56:26;100824.47;;;11.56;77.67
47753;BME280;2038;51.728;6.674;2023-04-25T10:59:14;100819.41;;;11.43;78.35
47753;BME280;2038;51.728;6.674;2023-04-25T11:01:52;100818.69;;;11.46;76.24
47753;BME280;2038;51.728;6.674;2023-04-25T11:04:24;100827.13;;;11.45;76.29
47753;BME280;2038;51.728;6.674;2023-04-25T11:08:01;100819.59;;;11.46;75.74
47753;BME280;2038;51.728;6.674;2023-04-25T11:10:04;100817.81;;;11.58;76.01
47753;BME280;2038;51.728;6.674;2023-04-25T11:12:31;100817.38;;;11.65;75.58
47753;BME280;2038;51.728;6.674;2023-04-25T11:15:06;100816.56;;;11.93;75.80
47753;BME280;2038;51.728;6.674;2023-04-25T11:17:33;100822.72;;;11.96;74.21
47753;BME280;2038;51.728;6.674;2023-04-25T11:20:01;100814.56;;;12.02;74.96
47753;BME280;2038;51.728;6.674;2023-04-25T11:22:28;100823.03;;;11.88;74.49
47753;BME280;2038;51.728;6.674;2023-04-25T11:24:55;100816.69;;;11.68;75.04
47753;BME280;2038;51.728;6.674;2023-04-25T11:27:22;100822.31;;;11.62;76.32
47753;BME280;2038;51.728;6.674;2023-04-25T11:29:50;100822.34;;;11.36;77.18
47753;BME280;2038;51.728;6.674;2023-04-25T11:32:17;100833.53;;;11.12;78.54
47753;BME280;2038;51.728;6.674;2023-04-25T11:34:44;100829.31;;;10.86;78.02
47753;BME280;2038;51.728;6.674;2023-04-25T11:37:11;100832.84;;;10.75;78.85
47753;BME280;2038;51.728;6.674;2023-04-25T11:39:39;100829.75;;;10.67;81.84
47753;BME280;2038;51.728;6.674;2023-04-25T11:42:09;100816.34;;;10.70;81.83
47753;BME280;2038;51.728;6.674;2023-04-25T11:44:35;100820.28;;;10.78;81.85
47753;BME280;2038;51.728;6.674;2023-04-25T11:47:04;100813.72;;;10.95;81.58
47753;BME280;2038;51.728;6.674;2023-04-25T11:49:32;100816.38;;;11.09;82.38
47753;BME280;2038;51.728;6.674;2023-04-25T11:51:58;100812.41;;;11.27;81.71
47753;BME280;2038;51.728;6.674;2023-04-25T11:54:24;100826.66;;;11.50;80.70
47753;BME280;2038;51.728;6.674;2023-04-25T11:56:50;100821.53;;;11.63;80.57
47753;BME280;2038;51.728;6.674;2023-04-25T11:59:17;100828.78;;;11.70;79.07
47753;BME280;2038;51.728;6.674;2023-04-25T12:01:50;100838.75;;;11.67;78.58
47753;BME280;2038;51.728;6.674;2023-04-25T12:04:22;100842.16;;;11.53;77.58
47753;BME280;2038;51.728;6.674;2023-04-25T12:06:52;100844.69;;;11.40;78.12
47753;BME280;2038;51.728;6.674;2023-04-25T12:09:30;100850.44;;;11.23;79.71
47753;BME280;2038;51.728;6.674;2023-04-25T12:11:59;100846.88;;;11.08;79.13
47753;BME280;2038;51.728;6.674;2023-04-25T12:14:31;100855.09;;;11.04;81.46
47753;BME280;2038;51.728;6.674;2023-04-25T12:17:00;100846.38;;;11.00;82.00
47753;BME280;2038;51.728;6.674;2023-04-25T12:19:36;100849.72;;;10.99;84.07
47753;BME280;2038;51.728;6.674;2023-04-25T12:22:20;100847.56;;;11.05;84.14
47753;BME280;2038;51.728;6.674;2023-04-25T12:24:47;100841.75;;;11.08;82.92
47753;BME280;2038;51.728;6.674;2023-04-25T12:27:15;100850.59;;;11.13;80.51
47753;BME280;2038;51.728;6.674;2023-04-25T12:29:51;100847.75;;;11.21;81.88
47753;BME280;2038;51.728;6.674;2023-04-25T12:32:19;100851.59;;;11.15;79.55
47753;BME280;2038;51.728;6.674;2023-04-25T12:34:45;100849.50;;;10.96;81.34
47753;BME280;2038;51.728;6.674;2023-04-25T12:37:12;100847.94;;;11.11;79.82
47753;BME280;2038;51.728;6.674;2023-04-25T12:39:39;100840.72;;;11.31;84.12
47753;BME280;2038;51.728;6.674;2023-04-25T12:42:05;100852.16;;;11.37;82.19
47753;BME280;2038;51.728;6.674;2023-04-25T12:44:34;100860.31;;;11.45;78.90
47753;BME280;2038;51.728;6.674;2023-04-25T12:47:00;100873.25;;;11.48;73.70
47753;BME280;2038;51.728;6.674;2023-04-25T12:49:26;100858.06;;;11.49;74.72
47753;BME280;2038;51.728;6.674;2023-04-25T12:51:53;100850.81;;;11.42;74.90
47753;BME280;2038;51.728;6.674;2023-04-25T12:54:19;100856.38;;;11.50;75.56
47753;BME280;2038;51.728;6.674;2023-04-25T12:56:45;100862.38;;;11.63;75.08
47753;BME280;2038;51.728;6.674;2023-04-25T12:59:12;100856.16;;;11.60;70.32
47753;BME280;2038;51.728;6.674;2023-04-25T13:01:38;100863.53;;;11.68;73.87
47753;BME280;2038;51.728;6.674;2023-04-25T13:04:04;100861.84;;;11.69;70.29
47753;BME280;2038;51.728;6.674;2023-04-25T13:06:30;100864.03;;;11.63;70.11
47753;BME280;2038;51.728;6.674;2023-04-25T13:08:57;100856.47;;;11.64;70.02
47753;BME280;2038;51.728;6.674;2023-04-25T13:11:23;100855.47;;;11.76;73.13
47753;BME280;2038;51.728;6.674;2023-04-25T13:13:49;100859.50;;;11.85;69.40
47753;BME280;2038;51.728;6.674;2023-04-25T13:16:15;100867.63;;;11.93;69.09
47753;BME280;2038;51.728;6.674;2023-04-25T13:18:42;100860.41;;;12.13;71.11
47753;BME280;2038;51.728;6.674;2023-04-25T13:21:10;100851.88;;;12.00;70.02